DKH1127 ZSNJ-ZBAA
Flight info
| Callsign | DKH1127 |
|---|---|
| Flight time | N/A |
| Altitude | 36100 |
| Route | OF71X OF A470 DPX A593 DALIM W157 BEKDO/K0830S1070 W157 AVBOX AVBOX6J |
| Aircraft | A320/M-SDE3FGHIRWY/LB1 |
Departure
| Time | 2026-04-18 11:19 |
|---|---|
| Airport | Nanjing Lukou International Airport (ZSNJ) |
Arrival
| Time | N/A |
|---|---|
| Airport | Beijing Capital International Airport (ZBAA) |
| Time | Latitude | Longitude | Altitude | Speed | Heading |
|---|---|---|---|---|---|
| 2026-04-18 10:55 | 31.73160 | 118.87229 | 58 ft | 0 kts | 328° |
| 2026-04-18 10:58 | 31.73159 | 118.87229 | 58 ft | 0 kts | 328° |
| 2026-04-18 11:06 | 31.73159 | 118.87230 | 58 ft | 0 kts | 328° |
| 2026-04-18 11:09 | 31.73139 | 118.87245 | 52 ft | 4 kts | 327° |
| 2026-04-18 11:09 | 31.73117 | 118.87262 | 51 ft | 4 kts | 324° |
| 2026-04-18 11:09 | 31.73095 | 118.87282 | 50 ft | 4 kts | 314° |
| 2026-04-18 11:09 | 31.73082 | 118.87305 | 52 ft | 4 kts | 268° |
| 2026-04-18 11:10 | 31.73083 | 118.87315 | 54 ft | 0 kts | 238° |
| 2026-04-18 11:11 | 31.73079 | 118.87307 | 53 ft | 5 kts | 238° |
| 2026-04-18 11:12 | 31.73053 | 118.87259 | 51 ft | 7 kts | 237° |
| 2026-04-18 11:12 | 31.73027 | 118.87212 | 52 ft | 9 kts | 237° |
| 2026-04-18 11:12 | 31.72975 | 118.87115 | 54 ft | 15 kts | 238° |
| 2026-04-18 11:12 | 31.72933 | 118.87048 | 58 ft | 5 kts | 209° |
| 2026-04-18 11:13 | 31.72906 | 118.87056 | 54 ft | 4 kts | 142° |
| 2026-04-18 11:13 | 31.72882 | 118.87074 | 57 ft | 4 kts | 156° |
| 2026-04-18 11:13 | 31.72841 | 118.87048 | 55 ft | 10 kts | 236° |
| 2026-04-18 11:13 | 31.72804 | 118.86975 | 53 ft | 10 kts | 239° |
| 2026-04-18 11:14 | 31.72751 | 118.86875 | 54 ft | 18 kts | 238° |
| 2026-04-18 11:14 | 31.72679 | 118.86740 | 53 ft | 21 kts | 238° |
| 2026-04-18 11:14 | 31.72599 | 118.86590 | 56 ft | 23 kts | 238° |
| 2026-04-18 11:14 | 31.72510 | 118.86425 | 53 ft | 25 kts | 237° |
| 2026-04-18 11:15 | 31.72415 | 118.86249 | 53 ft | 26 kts | 237° |
| 2026-04-18 11:15 | 31.72313 | 118.86061 | 54 ft | 28 kts | 238° |
| 2026-04-18 11:15 | 31.72218 | 118.85883 | 52 ft | 24 kts | 238° |
| 2026-04-18 11:15 | 31.72134 | 118.85723 | 51 ft | 24 kts | 238° |
| 2026-04-18 11:16 | 31.72047 | 118.85562 | 54 ft | 24 kts | 237° |
| 2026-04-18 11:16 | 31.71956 | 118.85394 | 51 ft | 25 kts | 237° |
| 2026-04-18 11:16 | 31.71860 | 118.85214 | 53 ft | 27 kts | 238° |
| 2026-04-18 11:16 | 31.71759 | 118.85026 | 51 ft | 27 kts | 237° |
| 2026-04-18 11:17 | 31.71674 | 118.84868 | 52 ft | 18 kts | 238° |
| 2026-04-18 11:17 | 31.71620 | 118.84766 | 57 ft | 10 kts | 238° |
| 2026-04-18 11:17 | 31.71583 | 118.84700 | 51 ft | 10 kts | 229° |
| 2026-04-18 11:17 | 31.71529 | 118.84694 | 56 ft | 8 kts | 158° |
| 2026-04-18 11:18 | 31.71456 | 118.84748 | 54 ft | 17 kts | 147° |
| 2026-04-18 11:18 | 31.71378 | 118.84821 | 56 ft | 10 kts | 116° |
| 2026-04-18 11:18 | 31.71387 | 118.84893 | 52 ft | 8 kts | 51° |
| 2026-04-18 11:18 | 31.71424 | 118.84958 | 50 ft | 13 kts | 58° |
| 2026-04-18 11:19 | 31.71575 | 118.85244 | 52 ft | 78 kts | 58° |
| 2026-04-18 11:19 | 31.71975 | 118.85990 | 55 ft | 135 kts | 58° |
| 2026-04-18 11:19 | 31.72567 | 118.87070 | 197 ft | 169 kts | 57° |
| 2026-04-18 11:19 | 31.73231 | 118.88212 | 849 ft | 171 kts | 54° |
| 2026-04-18 11:20 | 31.73940 | 118.89356 | 1555 ft | 175 kts | 55° |
| 2026-04-18 11:20 | 31.74601 | 118.90580 | 2121 ft | 183 kts | 59° |
| 2026-04-18 11:20 | 31.75290 | 118.91943 | 2398 ft | 206 kts | 60° |
| 2026-04-18 11:20 | 31.76059 | 118.93469 | 2809 ft | 224 kts | 60° |
| 2026-04-18 11:21 | 31.76879 | 118.95073 | 3582 ft | 228 kts | 59° |
| 2026-04-18 11:21 | 31.77706 | 118.96671 | 4355 ft | 231 kts | 58° |
| 2026-04-18 11:21 | 31.78543 | 118.98275 | 5081 ft | 236 kts | 57° |
| 2026-04-18 11:21 | 31.79410 | 118.99925 | 5843 ft | 239 kts | 57° |
| 2026-04-18 11:22 | 31.80291 | 119.01596 | 6602 ft | 241 kts | 57° |
| 2026-04-18 11:22 | 31.81183 | 119.03282 | 7313 ft | 245 kts | 56° |
| 2026-04-18 11:22 | 31.82091 | 119.04998 | 8012 ft | 249 kts | 56° |
| 2026-04-18 11:22 | 31.83012 | 119.06741 | 8721 ft | 253 kts | 56° |
| 2026-04-18 11:23 | 31.83951 | 119.08516 | 9433 ft | 258 kts | 56° |
| 2026-04-18 11:23 | 31.84908 | 119.10321 | 10121 ft | 262 kts | 56° |
| 2026-04-18 11:23 | 31.86013 | 119.12019 | 10781 ft | 262 kts | 37° |
| 2026-04-18 11:23 | 31.87583 | 119.13040 | 11460 ft | 259 kts | 12° |
| 2026-04-18 11:24 | 31.89361 | 119.13157 | 12159 ft | 257 kts | 347° |
| 2026-04-18 11:24 | 31.91004 | 119.12363 | 12853 ft | 257 kts | 323° |
| 2026-04-18 11:24 | 31.92205 | 119.10808 | 13525 ft | 261 kts | 299° |
| 2026-04-18 11:24 | 31.92734 | 119.08754 | 14138 ft | 268 kts | 278° |
| 2026-04-18 11:25 | 31.92858 | 119.06551 | 14739 ft | 273 kts | 269° |
| 2026-04-18 11:25 | 31.92511 | 119.04322 | 15163 ft | 287 kts | 259° |
| 2026-04-18 11:25 | 31.92367 | 119.01938 | 15284 ft | 300 kts | 285° |
| 2026-04-18 11:25 | 31.93284 | 118.99710 | 15415 ft | 313 kts | 314° |
| 2026-04-18 11:26 | 31.95104 | 118.98238 | 15546 ft | 329 kts | 338° |
| 2026-04-18 11:26 | 31.97285 | 118.97200 | 15673 ft | 347 kts | 338° |
| 2026-04-18 11:26 | 31.99544 | 118.96036 | 15959 ft | 359 kts | 336° |
| 2026-04-18 11:26 | 32.01826 | 118.94790 | 16469 ft | 364 kts | 335° |
| 2026-04-18 11:27 | 32.04118 | 118.93498 | 17038 ft | 367 kts | 335° |
| 2026-04-18 11:27 | 32.06423 | 118.92181 | 17629 ft | 370 kts | 335° |
| 2026-04-18 11:27 | 32.08745 | 118.90856 | 18225 ft | 372 kts | 335° |
| 2026-04-18 11:27 | 32.11086 | 118.89528 | 18736 ft | 374 kts | 335° |
| 2026-04-18 11:28 | 32.13444 | 118.88203 | 19220 ft | 376 kts | 335° |
| 2026-04-18 11:28 | 32.15817 | 118.86875 | 19704 ft | 379 kts | 335° |
| 2026-04-18 11:28 | 32.18206 | 118.85538 | 20172 ft | 381 kts | 334° |
| 2026-04-18 11:28 | 32.20605 | 118.84194 | 20650 ft | 384 kts | 334° |
| 2026-04-18 11:29 | 32.23029 | 118.82836 | 21117 ft | 386 kts | 334° |
| 2026-04-18 11:29 | 32.25461 | 118.81471 | 21578 ft | 388 kts | 334° |
| 2026-04-18 11:29 | 32.27907 | 118.80096 | 22025 ft | 391 kts | 334° |
| 2026-04-18 11:29 | 32.30371 | 118.78710 | 22483 ft | 393 kts | 334° |
| 2026-04-18 11:30 | 32.32848 | 118.77315 | 22935 ft | 395 kts | 334° |
| 2026-04-18 11:30 | 32.35306 | 118.75933 | 23377 ft | 397 kts | 333° |
| 2026-04-18 11:30 | 32.37809 | 118.74525 | 23766 ft | 400 kts | 333° |
| 2026-04-18 11:30 | 32.40327 | 118.73103 | 24122 ft | 402 kts | 333° |
| 2026-04-18 11:31 | 32.42857 | 118.71673 | 24449 ft | 405 kts | 333° |
| 2026-04-18 11:31 | 32.45406 | 118.70233 | 24773 ft | 407 kts | 333° |
| 2026-04-18 11:31 | 32.47973 | 118.68785 | 25101 ft | 410 kts | 333° |
| 2026-04-18 11:31 | 32.50554 | 118.67330 | 25419 ft | 412 kts | 333° |
| 2026-04-18 11:32 | 32.53148 | 118.65866 | 25744 ft | 414 kts | 333° |
| 2026-04-18 11:32 | 32.55755 | 118.64391 | 26075 ft | 416 kts | 333° |
| 2026-04-18 11:32 | 32.58375 | 118.62909 | 26392 ft | 419 kts | 333° |
| 2026-04-18 11:32 | 32.61009 | 118.61416 | 26704 ft | 421 kts | 333° |
| 2026-04-18 11:33 | 32.63656 | 118.59915 | 27025 ft | 423 kts | 333° |
| 2026-04-18 11:33 | 32.66324 | 118.58410 | 27322 ft | 426 kts | 334° |
| 2026-04-18 11:33 | 32.69114 | 118.57190 | 27610 ft | 430 kts | 342° |
| 2026-04-18 11:33 | 32.71988 | 118.56171 | 27897 ft | 432 kts | 341° |
| 2026-04-18 11:34 | 32.74878 | 118.55144 | 28178 ft | 434 kts | 341° |
| 2026-04-18 11:34 | 32.77776 | 118.54111 | 28450 ft | 437 kts | 341° |
| 2026-04-18 11:34 | 32.80697 | 118.53068 | 28720 ft | 439 kts | 341° |
| 2026-04-18 11:34 | 32.83630 | 118.52018 | 28977 ft | 441 kts | 341° |
| 2026-04-18 11:35 | 32.86579 | 118.50962 | 29228 ft | 443 kts | 341° |
| 2026-04-18 11:35 | 32.89539 | 118.49906 | 29487 ft | 446 kts | 341° |
| 2026-04-18 11:35 | 32.92517 | 118.48845 | 29739 ft | 448 kts | 341° |
| 2026-04-18 11:35 | 32.95503 | 118.47779 | 29988 ft | 450 kts | 341° |
| 2026-04-18 11:36 | 32.98507 | 118.46703 | 30248 ft | 450 kts | 341° |
| 2026-04-18 11:36 | 33.01506 | 118.45624 | 30549 ft | 450 kts | 341° |
| 2026-04-18 11:36 | 33.04459 | 118.44557 | 30841 ft | 449 kts | 341° |
| 2026-04-18 11:36 | 33.07487 | 118.43464 | 31149 ft | 449 kts | 341° |
| 2026-04-18 11:37 | 33.10440 | 118.42400 | 31445 ft | 448 kts | 341° |
| 2026-04-18 11:37 | 33.13425 | 118.41327 | 31747 ft | 448 kts | 341° |
| 2026-04-18 11:37 | 33.16406 | 118.40258 | 32045 ft | 447 kts | 340° |
| 2026-04-18 11:37 | 33.19382 | 118.39188 | 32348 ft | 447 kts | 340° |
| 2026-04-18 11:38 | 33.22358 | 118.38116 | 32651 ft | 446 kts | 340° |
| 2026-04-18 11:38 | 33.25333 | 118.37043 | 32946 ft | 446 kts | 340° |
| 2026-04-18 11:38 | 33.28295 | 118.35974 | 33256 ft | 445 kts | 340° |
| 2026-04-18 11:38 | 33.31261 | 118.34904 | 33591 ft | 444 kts | 340° |
| 2026-04-18 11:39 | 33.34210 | 118.33840 | 33897 ft | 443 kts | 340° |
| 2026-04-18 11:39 | 33.37164 | 118.32778 | 34152 ft | 443 kts | 340° |
| 2026-04-18 11:39 | 33.40115 | 118.31717 | 34394 ft | 443 kts | 340° |
| 2026-04-18 11:39 | 33.43063 | 118.30654 | 34633 ft | 443 kts | 340° |
| 2026-04-18 11:40 | 33.46007 | 118.29590 | 34864 ft | 442 kts | 340° |
| 2026-04-18 11:40 | 33.48957 | 118.28521 | 35094 ft | 442 kts | 340° |
| 2026-04-18 11:40 | 33.51899 | 118.27454 | 35312 ft | 442 kts | 339° |
| 2026-04-18 11:40 | 33.54844 | 118.26386 | 35525 ft | 442 kts | 339° |